Time;durP1;ratioP1;P1;durP2;ratioP2;P2;SDS_P1;SDS_P2;PMS_P1;PMS_P2;Temp;Humidity;BMP_temperature;BMP_pressure;BME280_temperature;BME280_humidity;BME280_pressure;Samples;Min_cycle;Max_cycle;Signal;HPM_P1;HPM_P2
2022/06/25 00:00:57;;;;;;;;;0.75;0.75;;;;;24.27;44.95;100420.50;2093666;28;47765;-58
2022/06/25 00:01:58;;;;;;;;;1.25;1.25;;;;;24.27;45.42;100415.94;2094403;28;47240;-60
2022/06/25 00:02:58;;;;;;;;;2.00;0.50;;;;;24.26;45.01;100416.88;2086420;28;47320;-60
2022/06/25 00:03:59;;;;;;;;;2.00;2.00;;;;;24.27;45.18;100413.22;2075294;28;47562;-58
2022/06/25 00:06:19;;;;;;;;;1.00;0.50;;;;;24.26;45.53;100419.59;2087206;28;47238;-58
2022/06/25 00:07:20;;;;;;;;;1.50;1.50;;;;;24.25;45.42;100415.16;2090328;28;46909;-58
2022/06/25 00:08:20;;;;;;;;;1.00;1.00;;;;;24.26;45.61;100414.16;2086641;28;47827;-59
2022/06/25 00:09:21;;;;;;;;;3.00;3.00;;;;;24.25;45.29;100409.75;2086125;28;47075;-60
2022/06/25 00:10:22;;;;;;;;;3.00;3.00;;;;;24.26;45.28;100402.47;2088481;28;47451;-59
2022/06/25 00:12:41;;;;;;;;;2.25;1.00;;;;;24.26;45.60;100406.03;2094052;28;48109;-59
2022/06/25 00:13:42;;;;;;;;;1.00;1.00;;;;;24.26;45.17;100402.47;2089392;28;47285;-60
2022/06/25 00:14:43;;;;;;;;;2.00;0.00;;;;;24.26;45.41;100407.88;2095795;28;47933;-59
2022/06/25 00:15:44;;;;;;;;;1.50;1.00;;;;;24.26;45.52;100400.63;2093154;28;47987;-59
2022/06/25 00:16:45;;;;;;;;;1.80;1.80;;;;;24.26;45.12;100405.19;2094301;28;48101;-60
2022/06/25 00:17:45;;;;;;;;;2.25;1.00;;;;;24.25;45.21;100404.31;2095768;28;47680;-61
2022/06/25 00:18:46;;;;;;;;;1.00;1.00;;;;;24.25;45.20;100404.31;2093437;28;47321;-59
2022/06/25 00:19:47;;;;;;;;;4.00;2.50;;;;;24.25;45.36;100407.03;2087411;28;47339;-59
2022/06/25 00:20:47;;;;;;;;;1.75;1.75;;;;;24.24;45.47;100410.72;2093032;28;46421;-57
2022/06/25 00:21:49;;;;;;;;;2.00;2.00;;;;;24.24;45.53;100408.03;2089684;28;48061;-58
2022/06/25 00:22:50;;;;;;;;;0.75;0.75;;;;;24.23;45.55;100400.03;2087510;28;47247;-59
2022/06/25 00:23:50;;;;;;;;;2.00;2.00;;;;;24.22;45.56;100404.59;2092944;28;47633;-59
2022/06/25 00:24:50;;;;;;;;;2.00;2.00;;;;;24.22;45.70;100412.72;2092008;28;47172;-59
2022/06/25 00:25:51;;;;;;;;;1.00;1.00;;;;;24.20;45.71;100406.56;2088476;28;48096;-59
2022/06/25 00:26:51;;;;;;;;;2.00;2.00;;;;;24.19;45.85;100407.56;2093934;28;47596;-58
2022/06/25 00:27:52;;;;;;;;;0.67;0.67;;;;;24.19;45.79;100398.56;2095238;28;47214;-59
2022/06/25 00:28:52;;;;;;;;;1.33;1.33;;;;;24.19;45.96;100398.56;2097030;28;46390;-59
2022/06/25 00:29:53;;;;;;;;;1.33;1.33;;;;;24.18;46.07;100411.25;2095433;28;47471;-59
2022/06/25 00:30:53;;;;;;;;;1.33;1.33;;;;;24.18;46.10;100404.97;2091310;28;47796;-59
2022/06/25 00:31:53;;;;;;;;;1.33;1.33;;;;;24.18;46.17;100404.97;2081851;28;47110;-59
2022/06/25 00:32:54;;;;;;;;;1.00;1.00;;;;;24.18;46.21;100403.13;2084734;28;47480;-59
2022/06/25 00:33:55;;;;;;;;;1.67;1.00;;;;;24.17;46.58;100406.84;2097016;28;47529;-58
2022/06/25 00:34:55;;;;;;;;;1.00;1.00;;;;;24.16;46.29;100410.53;2094987;28;47449;-58
2022/06/25 00:35:55;;;;;;;;;1.33;1.33;;;;;24.17;46.46;100411.38;2095418;28;47143;-59
2022/06/25 00:36:56;;;;;;;;;1.00;1.00;;;;;24.16;46.43;100410.53;2097521;28;47495;-60
2022/06/25 00:37:56;;;;;;;;;2.00;2.00;;;;;24.16;46.52;100405.09;2095290;28;47432;-59
2022/06/25 00:38:58;;;;;;;;;0.33;0.00;;;;;24.14;46.69;100412.50;2096890;28;46402;-59
2022/06/25 00:39:59;;;;;;;;;1.00;1.00;;;;;24.15;46.73;100411.53;2095502;28;47725;-58
2022/06/25 00:40:59;;;;;;;;;2.00;2.00;;;;;24.14;46.65;100415.22;2095065;28;47845;-59
2022/06/25 00:41:59;;;;;;;;;2.33;2.33;;;;;24.14;47.02;100406.19;2092647;28;47458;-58
2022/06/25 00:43:00;;;;;;;;;2.00;2.00;;;;;24.12;47.10;100402.75;2091953;28;47491;-56
2022/06/25 00:44:07;;;;;;;;;2.00;2.00;;;;;24.10;47.06;100411.03;2088569;28;47364;-59
2022/06/25 00:45:07;;;;;;;;;2.00;2.00;;;;;24.08;46.99;100400.31;2089124;28;47862;-58
2022/06/25 00:46:08;;;;;;;;;3.33;3.00;;;;;24.07;46.86;100400.44;2088083;28;47357;-60
2022/06/25 00:47:12;;;;;;;;;2.00;1.67;;;;;24.05;47.43;100408.72;2088904;28;47341;-58
2022/06/25 00:48:13;;;;;;;;;2.00;2.00;;;;;24.05;47.22;100408.72;2092045;28;47816;-57
2022/06/25 00:49:14;;;;;;;;;3.33;3.33;;;;;24.05;47.71;100411.41;2093315;28;47472;-58
2022/06/25 00:50:14;;;;;;;;;2.00;2.00;;;;;24.05;47.66;100403.28;2088971;28;47596;-59
2022/06/25 00:51:15;;;;;;;;;1.33;1.00;;;;;24.05;47.31;100413.28;2090359;28;47094;-60
2022/06/25 00:52:18;;;;;;;;;2.50;2.50;;;;;24.04;47.47;100411.53;2090544;28;47444;-60
2022/06/25 00:53:21;;;;;;;;;3.25;2.25;;;;;24.03;47.47;100413.41;2088984;28;47574;-60
2022/06/25 00:54:24;;;;;;;;;2.75;2.75;;;;;24.02;47.46;100414.38;2088370;28;47597;-57
2022/06/25 00:55:28;;;;;;;;;2.25;2.25;;;;;24.03;47.24;100412.53;2093214;28;47910;-59
2022/06/25 00:56:32;;;;;;;;;1.20;1.00;;;;;24.03;47.47;100416.13;2086139;28;48024;-59
2022/06/25 00:57:34;;;;;;;;;1.60;1.40;;;;;24.02;47.58;100413.53;2092884;28;47821;-59
2022/06/25 00:58:39;;;;;;;;;1.40;1.40;;;;;24.02;47.46;100413.53;2093513;28;47558;-59
2022/06/25 00:59:43;;;;;;;;;3.80;2.00;;;;;24.02;47.79;100413.53;2087762;28;47603;-58
2022/06/25 01:00:44;;;;;;;;;2.80;2.80;;;;;24.00;47.53;100416.34;2090225;28;48332;-58
2022/06/25 01:01:45;;;;;;;;;4.80;3.00;;;;;24.01;47.68;100409.97;2092305;28;47715;-58
2022/06/25 01:02:46;;;;;;;;;2.75;1.50;;;;;23.99;47.54;100402.91;2089446;28;47332;-60
2022/06/25 01:03:46;;;;;;;;;3.00;1.20;;;;;23.99;47.52;100414.63;2094046;28;47425;-59
2022/06/25 01:04:47;;;;;;;;;3.00;1.67;;;;;24.00;47.62;100410.06;2090573;28;47459;-59
2022/06/25 01:05:48;;;;;;;;;2.00;1.80;;;;;24.00;47.47;100410.06;2091468;28;47470;-59
2022/06/25 01:06:48;;;;;;;;;2.00;2.00;;;;;23.98;47.47;100407.47;2097476;28;47604;-58
2022/06/25 01:07:50;;;;;;;;;2.25;2.25;;;;;23.98;47.73;100407.47;2096904;28;45721;-58
2022/06/25 01:08:50;;;;;;;;;5.60;3.00;;;;;23.99;47.32;100397.50;2092367;28;47282;-57
2022/06/25 01:09:51;;;;;;;;;2.00;2.00;;;;;24.00;47.67;100410.06;2092856;28;47553;-60
2022/06/25 01:10:52;;;;;;;;;1.00;1.00;;;;;23.98;47.54;100409.31;2088677;28;47816;-58
2022/06/25 01:11:52;;;;;;;;;4.25;4.25;;;;;23.97;47.51;100407.59;2093756;28;48057;-57
2022/06/25 01:12:53;;;;;;;;;2.67;2.67;;;;;23.96;47.51;100404.03;2089358;28;47891;-58
2022/06/25 01:13:53;;;;;;;;;2.00;2.00;;;;;23.96;47.44;100408.59;2090658;28;47330;-59
2022/06/25 01:15:00;;;;;;;;;1.00;1.00;;;;;23.95;47.17;100410.44;2093870;28;47705;-59
2022/06/25 01:16:01;;;;;;;;;2.00;2.00;;;;;23.94;47.54;100407.88;2090105;28;47620;-61
2022/06/25 01:17:06;;;;;;;;;3.00;3.00;;;;;23.94;47.66;100413.28;2090915;28;47826;-59
2022/06/25 01:18:07;;;;;;;;;2.60;2.60;;;;;23.92;47.11;100416.13;2093369;28;48039;-58
2022/06/25 01:19:10;;;;;;;;;1.80;1.80;;;;;23.91;47.63;100408.13;2090639;28;47385;-60
2022/06/25 01:20:12;;;;;;;;;2.60;2.20;;;;;23.90;47.61;100411.81;2091164;28;47420;-59
2022/06/25 01:21:13;;;;;;;;;3.75;2.75;;;;;23.91;47.62;100408.13;2089908;28;47415;-59
2022/06/25 01:22:14;;;;;;;;;2.33;2.33;;;;;23.89;47.64;100413.69;2081144;28;47753;-58
2022/06/25 01:23:14;;;;;;;;;3.00;3.00;;;;;23.88;47.60;100406.50;2090615;28;47888;-58
2022/06/25 01:24:15;;;;;;;;;1.00;1.00;;;;;23.88;47.44;100405.66;2087756;28;48080;-59
2022/06/25 01:25:16;;;;;;;;;4.00;4.00;;;;;23.88;47.61;100408.34;2091629;28;47653;-60
2022/06/25 01:26:16;;;;;;;;;2.25;1.75;;;;;23.86;47.43;100404.91;2096758;28;47304;-59
2022/06/25 01:27:16;;;;;;;;;3.00;3.00;;;;;23.85;47.65;100405.91;2090103;28;47544;-58
2022/06/25 01:28:17;;;;;;;;;2.00;2.00;;;;;23.84;47.20;100409.59;2090016;28;47331;-59
2022/06/25 01:29:18;;;;;;;;;3.00;3.00;;;;;23.81;47.76;100410.72;2097019;28;47642;-59
2022/06/25 01:30:19;;;;;;;;;2.75;2.75;;;;;23.80;47.60;100409.00;2096685;28;47361;-59
2022/06/25 01:31:20;;;;;;;;;2.40;2.00;;;;;23.80;47.35;100409.00;2096438;28;47937;-60
2022/06/25 01:32:20;;;;;;;;;2.00;2.00;;;;;23.80;47.38;100400.88;2087267;28;46179;-60
2022/06/25 01:33:21;;;;;;;;;2.50;2.00;;;;;23.80;47.29;100419.84;2090157;28;47637;-59
2022/06/25 01:34:21;;;;;;;;;2.00;2.00;;;;;23.79;47.66;100410.00;2090747;28;48008;-58
2022/06/25 01:35:22;;;;;;;;;2.00;2.00;;;;;23.78;47.79;100409.13;2087243;28;47355;-58
2022/06/25 01:36:22;;;;;;;;;3.33;1.33;;;;;23.78;47.79;100408.28;2091572;28;47686;-58
2022/06/25 01:37:23;;;;;;;;;2.00;2.00;;;;;23.76;47.57;100405.69;2088344;28;47441;-59
2022/06/25 01:38:23;;;;;;;;;2.00;2.00;;;;;23.76;47.77;100419.25;2090511;28;47619;-60
2022/06/25 01:39:23;;;;;;;;;4.00;4.00;;;;;23.76;47.59;100418.38;2091618;28;47275;-59
2022/06/25 01:40:24;;;;;;;;;3.50;3.25;;;;;23.75;47.98;100412.06;2087317;28;47976;-59
2022/06/25 01:41:24;;;;;;;;;1.00;1.00;;;;;23.75;47.80;100416.63;2091482;28;47418;-59
2022/06/25 01:43:45;;;;;;;;;2.20;2.20;;;;;23.74;47.81;100418.47;2087804;28;47838;-59
2022/06/25 01:44:45;;;;;;;;;1.75;1.75;;;;;23.74;48.08;100414.91;2091221;28;47514;-58
2022/06/25 01:45:46;;;;;;;;;1.50;1.50;;;;;23.73;47.96;100410.47;2089518;28;47620;-59
2022/06/25 01:46:46;;;;;;;;;2.00;2.00;;;;;23.75;47.73;100405.78;2087438;28;47901;-60
2022/06/25 01:47:47;;;;;;;;;4.00;3.50;;;;;23.76;47.61;100412.97;2090999;28;47600;-60
2022/06/25 01:48:48;;;;;;;;;1.00;1.00;;;;;23.75;48.09;100401.22;2089558;28;47529;-58
2022/06/25 01:49:48;;;;;;;;;2.00;2.00;;;;;23.73;47.92;100397.78;2072230;28;47134;-59
2022/06/25 01:50:49;;;;;;;;;3.25;2.00;;;;;23.73;47.59;100402.34;2074603;28;48180;-60
2022/06/25 01:51:49;;;;;;;;;3.00;2.00;;;;;23.73;47.82;100410.47;2087659;28;47431;-59
2022/06/25 01:52:50;;;;;;;;;1.00;1.00;;;;;23.74;47.98;100412.19;2090861;28;47790;-59
2022/06/25 01:53:50;;;;;;;;;2.00;2.00;;;;;23.74;47.53;100412.19;2087725;28;47184;-60
2022/06/25 01:54:51;;;;;;;;;2.50;2.50;;;;;23.72;47.90;100409.63;2086810;28;47949;-57
2022/06/25 01:55:51;;;;;;;;;1.25;1.25;;;;;23.72;47.78;100412.31;2088650;28;47462;-58
2022/06/25 01:56:51;;;;;;;;;1.00;1.00;;;;;23.72;47.90;100417.75;2089509;28;47680;-58
2022/06/25 01:57:52;;;;;;;;;2.75;2.75;;;;;23.71;47.93;100410.59;2088672;28;47710;-59
2022/06/25 01:58:52;;;;;;;;;2.00;2.00;;;;;23.72;47.96;100411.47;2090629;28;47990;-59
2022/06/25 01:59:53;;;;;;;;;1.00;1.00;;;;;23.71;48.02;100409.75;2087628;28;47519;-59
2022/06/25 02:00:53;;;;;;;;;1.00;1.00;;;;;23.70;47.93;100408.88;2091004;28;47013;-56
2022/06/25 02:01:54;;;;;;;;;4.00;4.00;;;;;23.70;47.75;100411.59;2082856;28;47410;-57
2022/06/25 02:02:55;;;;;;;;;1.00;1.00;;;;;23.71;48.08;100417.88;2079041;28;48054;-57
2022/06/25 02:03:55;;;;;;;;;1.60;1.60;;;;;23.72;47.97;100414.16;2091772;28;47735;-58
2022/06/25 02:04:55;;;;;;;;;1.00;1.00;;;;;23.72;47.94;100415.03;2090670;28;47639;-59
2022/06/25 02:05:59;;;;;;;;;2.00;1.00;;;;;23.72;47.58;100420.44;2083788;28;47382;-59
2022/06/25 02:06:59;;;;;;;;;1.00;1.00;;;;;23.71;48.05;100421.44;2089295;28;47646;-57
2022/06/25 02:08:00;;;;;;;;;1.67;1.67;;;;;23.72;48.03;100416.88;2089539;28;47939;-59
2022/06/25 02:09:00;;;;;;;;;2.00;2.00;;;;;23.71;47.93;100421.44;2090466;28;47726;-60
2022/06/25 02:10:00;;;;;;;;;2.67;2.67;;;;;23.70;48.43;100414.31;2083122;28;47402;-59
2022/06/25 02:11:04;;;;;;;;;2.33;2.33;;;;;23.71;48.33;100415.16;2084207;28;47397;-59
2022/06/25 02:12:05;;;;;;;;;1.25;1.00;;;;;23.70;48.11;100419.72;2080071;28;45210;-57
2022/06/25 02:13:05;;;;;;;;;0.75;0.25;;;;;23.71;48.39;100409.75;2086834;28;47785;-58
2022/06/25 02:14:06;;;;;;;;;4.33;2.00;;;;;23.72;48.53;100411.47;2090786;28;46016;-59
2022/06/25 02:15:07;;;;;;;;;3.67;2.00;;;;;23.72;48.17;100416.88;2096413;28;47321;-58
2022/06/25 02:16:08;;;;;;;;;0.75;0.75;;;;;23.73;48.23;100415.91;2086848;28;47581;-60
2022/06/25 02:17:08;;;;;;;;;2.00;2.00;;;;;23.72;48.09;100422.31;2086059;28;47493;-58
2022/06/25 02:18:10;;;;;;;;;0.67;0.67;;;;;23.71;48.11;100418.72;2088070;28;47459;-59
2022/06/25 02:19:10;;;;;;;;;2.00;1.00;;;;;23.71;48.35;100415.16;2084275;28;47641;-59
2022/06/25 02:20:11;;;;;;;;;1.00;1.00;;;;;23.72;48.05;100425.00;2087739;28;47471;-60
2022/06/25 02:21:12;;;;;;;;;1.33;1.33;;;;;23.71;47.85;100432.28;2095326;28;46115;-57
2022/06/25 02:22:14;;;;;;;;;3.00;2.00;;;;;23.69;48.22;100423.41;2095262;28;46658;-57
2022/06/25 02:23:16;;;;;;;;;1.00;1.00;;;;;23.70;48.26;100421.56;2088571;28;46948;-59
2022/06/25 02:24:17;;;;;;;;;2.75;2.75;;;;;23.69;48.63;100427.97;2086462;28;47758;-59
2022/06/25 02:25:18;;;;;;;;;1.00;1.00;;;;;23.67;48.45;100421.81;2089525;28;45460;-59
2022/06/25 02:26:18;;;;;;;;;0.33;0.33;;;;;23.66;48.48;100420.97;2096662;28;48107;-58
2022/06/25 02:27:18;;;;;;;;;2.00;1.67;;;;;23.66;48.53;100425.53;2091447;28;47308;-59
2022/06/25 02:28:19;;;;;;;;;0.00;0.00;;;;;23.66;48.99;100420.97;2087862;28;47312;-59
2022/06/25 02:29:19;;;;;;;;;0.33;0.33;;;;;23.64;48.67;100420.22;2086892;28;47822;-59
2022/06/25 02:30:20;;;;;;;;;1.00;1.00;;;;;23.64;48.66;100419.38;2085061;28;47534;-58
2022/06/25 02:31:20;;;;;;;;;0.00;0.00;;;;;23.64;48.75;100422.94;2096395;28;47567;-59
2022/06/25 02:32:20;;;;;;;;;2.67;2.00;;;;;23.63;48.87;100415.81;2095909;28;47750;-59
2022/06/25 02:33:21;;;;;;;;;2.00;1.00;;;;;23.62;48.80;100414.03;2096325;28;47409;-58
2022/06/25 02:34:21;;;;;;;;;1.33;0.33;;;;;23.61;48.95;100419.59;2096606;28;47769;-59
2022/06/25 02:35:22;;;;;;;;;1.67;1.67;;;;;23.60;48.94;100420.59;2095872;28;47965;-59
2022/06/25 02:36:22;;;;;;;;;1.33;1.33;;;;;23.58;49.26;100409.88;2096580;28;47650;-58
2022/06/25 02:37:22;;;;;;;;;2.00;2.00;;;;;23.55;49.05;100415.50;2096136;28;47007;-58
2022/06/25 02:38:23;;;;;;;;;0.00;0.00;;;;;23.54;49.08;100412.94;2096196;28;47287;-59
2022/06/25 02:39:23;;;;;;;;;2.33;2.33;;;;;23.53;48.95;100411.22;2096588;28;47408;-58
2022/06/25 02:40:24;;;;;;;;;1.00;1.00;;;;;23.51;49.34;100408.63;2095801;28;47310;-58
2022/06/25 02:41:24;;;;;;;;;2.33;2.33;;;;;23.50;49.14;100409.59;2086537;28;47741;-58
2022/06/25 02:42:24;;;;;;;;;2.00;2.00;;;;;23.49;49.36;100407.88;2096090;28;47594;-58
2022/06/25 02:43:25;;;;;;;;;0.67;0.00;;;;;23.48;49.41;100407.00;2096236;28;48323;-57
2022/06/25 02:44:25;;;;;;;;;2.00;2.00;;;;;23.50;48.95;100401.47;2096088;28;47333;-58
2022/06/25 02:45:25;;;;;;;;;0.00;0.00;;;;;23.52;49.21;100409.50;2095754;28;47366;-56
2022/06/25 02:46:26;;;;;;;;;1.00;1.00;;;;;23.52;49.21;100407.66;2089189;28;47965;-57
2022/06/25 02:47:26;;;;;;;;;1.00;1.00;;;;;23.55;49.25;100403.81;2087534;28;47424;-59
2022/06/25 02:48:27;;;;;;;;;1.00;1.00;;;;;23.56;49.31;100413.66;2093385;28;47624;-59
2022/06/25 02:49:27;;;;;;;;;1.67;1.67;;;;;23.56;49.21;100414.53;2096175;28;48011;-58
2022/06/25 02:50:27;;;;;;;;;0.00;0.00;;;;;23.56;49.26;100414.53;2096146;28;46333;-59
2022/06/25 02:51:28;;;;;;;;;0.33;0.33;;;;;23.56;49.45;100411.81;2091191;28;47612;-59
2022/06/25 02:52:28;;;;;;;;;2.00;2.00;;;;;23.57;49.39;100416.25;2078176;28;47411;-59
2022/06/25 02:53:29;;;;;;;;;1.33;1.33;;;;;23.57;49.38;100418.09;2072661;28;47183;-56
2022/06/25 02:54:29;;;;;;;;;0.33;0.33;;;;;23.57;49.21;100424.38;2087644;28;47706;-57
2022/06/25 02:59:32;;;;;;;;;0.25;0.25;;;;;23.56;49.41;100424.50;2091465;28;47228;-59
2022/06/25 03:00:32;;;;;;;;;0.00;0.00;;;;;23.55;49.37;100429.06;2078673;28;47199;-58
2022/06/25 03:01:33;;;;;;;;;0.00;0.00;;;;;23.53;49.56;100425.63;2078267;28;47869;-59
2022/06/25 03:02:34;;;;;;;;;0.00;0.00;;;;;23.53;49.66;100422.03;2090727;28;47716;-59
2022/06/25 03:03:34;;;;;;;;;0.67;0.67;;;;;23.53;49.56;100431.03;2088978;28;48064;-59
2022/06/25 03:04:35;;;;;;;;;0.00;0.00;;;;;23.52;49.36;100439.28;2094174;28;47615;-58
2022/06/25 03:05:36;;;;;;;;;0.50;0.50;;;;;23.50;49.61;100431.25;2089652;28;47310;-58
2022/06/25 03:06:36;;;;;;;;;0.33;0.33;;;;;23.49;49.72;100433.09;2091675;28;47555;-58
2022/06/25 03:07:37;;;;;;;;;0.67;0.67;;;;;23.48;49.84;100430.53;2083916;28;47557;-60
2022/06/25 03:08:37;;;;;;;;;1.33;1.33;;;;;23.46;50.03;100430.66;2080822;28;47866;-59
2022/06/25 03:09:38;;;;;;;;;0.00;0.00;;;;;23.44;49.94;100432.63;2095289;28;47717;-59
2022/06/25 03:10:38;;;;;;;;;0.00;0.00;;;;;23.44;50.31;100439.88;2090781;28;47844;-59
2022/06/25 03:11:39;;;;;;;;;0.00;0.00;;;;;23.42;49.99;100441.84;2090181;28;47723;-59
2022/06/25 03:12:39;;;;;;;;;1.00;0.67;;;;;23.42;49.90;100440.00;2092793;28;48178;-59
2022/06/25 03:13:40;;;;;;;;;0.00;0.00;;;;;23.41;49.99;100441.00;2089355;28;47529;-58
2022/06/25 03:14:41;;;;;;;;;1.00;1.00;;;;;23.40;50.37;100439.28;2091191;28;47603;-59
2022/06/25 03:15:41;;;;;;;;;0.00;0.00;;;;;23.39;50.03;100431.28;2089989;28;47779;-57
2022/06/25 03:16:43;;;;;;;;;0.00;0.00;;;;;23.39;50.13;100437.56;2087949;28;48039;-59
2022/06/25 03:17:43;;;;;;;;;1.25;0.75;;;;;23.37;50.00;100446.75;2092850;28;47677;-60
2022/06/25 03:18:43;;;;;;;;;0.00;0.00;;;;;23.34;50.26;100439.75;2089389;28;47729;-60
2022/06/25 03:19:44;;;;;;;;;0.00;0.00;;;;;23.32;50.44;100444.44;2086475;28;48015;-60
2022/06/25 03:20:44;;;;;;;;;0.00;0.00;;;;;23.31;50.20;100449.97;2087004;28;47788;-59
2022/06/25 03:21:46;;;;;;;;;0.00;0.00;;;;;23.30;50.36;100442.84;2083122;28;47260;-59
2022/06/25 03:22:46;;;;;;;;;0.00;0.00;;;;;23.28;50.40;100451.06;2081353;28;47666;-59
2022/06/25 03:23:47;;;;;;;;;0.00;0.00;;;;;23.28;50.12;100444.81;2085827;28;47530;-60
2022/06/25 03:24:47;;;;;;;;;0.00;0.00;;;;;23.26;50.07;100441.34;2087276;28;48106;-59
2022/06/25 03:25:48;;;;;;;;;0.67;0.00;;;;;23.25;50.21;100445.91;2087806;28;47439;-59
2022/06/25 03:26:48;;;;;;;;;0.00;0.00;;;;;23.25;50.56;100447.72;2093344;28;47612;-59
2022/06/25 03:27:49;;;;;;;;;0.00;0.00;;;;;23.23;50.08;100447.00;2088394;28;47594;-58
2022/06/25 03:28:50;;;;;;;;;0.00;0.00;;;;;23.22;50.37;100440.72;2087165;28;47501;-59
2022/06/25 03:29:50;;;;;;;;;0.00;0.00;;;;;23.20;50.32;100442.69;2087526;28;48051;-60
2022/06/25 03:30:51;;;;;;;;;1.00;0.00;;;;;23.19;50.40;100439.13;2087181;28;47443;-59
2022/06/25 03:31:51;;;;;;;;;0.00;0.00;;;;;23.19;50.22;100438.25;2086884;28;47481;-59
2022/06/25 03:32:51;;;;;;;;;0.00;0.00;;;;;23.18;49.96;100440.09;2087523;28;47228;-58
2022/06/25 03:33:52;;;;;;;;;0.00;0.00;;;;;23.17;50.25;100435.66;2089743;28;47752;-59
2022/06/25 03:34:53;;;;;;;;;1.00;0.00;;;;;23.15;50.05;100439.50;2086301;28;47613;-58
2022/06/25 03:35:53;;;;;;;;;1.00;0.00;;;;;23.15;50.52;100439.50;2082128;28;47388;-58
2022/06/25 03:36:53;;;;;;;;;0.33;0.33;;;;;23.15;50.22;100450.31;2089852;28;47382;-58
2022/06/25 03:37:54;;;;;;;;;0.00;0.00;;;;;23.16;50.46;100447.50;2080434;28;47487;-60
2022/06/25 03:38:54;;;;;;;;;0.00;0.00;;;;;23.17;50.27;100443.78;2085299;28;47538;-58
2022/06/25 03:39:55;;;;;;;;;0.00;0.00;;;;;23.17;50.55;100443.78;2085821;28;47309;-60
2022/06/25 03:41:32;;;;;;;;;0.00;0.00;;;;;23.17;50.22;100449.22;2088416;28;47655;-59
2022/06/25 03:42:15;;;;;;;;;0.00;0.00;;;;;23.18;50.10;100445.50;2088369;28;47727;-60
2022/06/25 03:43:16;;;;;;;;;1.00;1.00;;;;;23.18;50.56;100445.50;2089187;28;47004;-59
2022/06/25 03:44:16;;;;;;;;;0.00;0.00;;;;;23.18;50.13;100447.38;2088848;28;47718;-59
2022/06/25 03:45:17;;;;;;;;;1.00;1.00;;;;;23.19;50.00;100447.25;2089925;28;47533;-58
2022/06/25 03:46:17;;;;;;;;;0.00;0.00;;;;;23.20;50.23;100454.38;2084289;28;46560;-59
2022/06/25 03:47:17;;;;;;;;;0.00;0.00;;;;;23.21;50.21;100457.94;2088317;28;47330;-58
2022/06/25 03:48:18;;;;;;;;;0.00;0.00;;;;;23.22;50.23;100451.53;2094489;28;47947;-60
2022/06/25 03:49:18;;;;;;;;;0.00;0.00;;;;;23.23;50.35;100455.13;2087863;28;48012;-60
2022/06/25 03:50:22;;;;;;;;;0.00;0.00;;;;;23.22;50.08;100462.38;2088289;28;47495;-59
2022/06/25 03:51:22;;;;;;;;;0.00;0.00;;;;;23.22;50.42;100466.94;2086495;28;46891;-59
2022/06/25 03:52:23;;;;;;;;;0.00;0.00;;;;;23.22;50.04;100462.38;2087406;28;47903;-57
2022/06/25 03:53:23;;;;;;;;;0.00;0.00;;;;;23.20;50.08;100461.63;2087106;28;47427;-59
2022/06/25 03:54:24;;;;;;;;;0.00;0.00;;;;;23.19;49.97;100455.38;2089252;28;48016;-59
2022/06/25 03:55:24;;;;;;;;;0.00;0.00;;;;;23.19;49.93;100458.06;2087796;28;47699;-58
2022/06/25 03:56:25;;;;;;;;;0.00;0.00;;;;;23.18;50.19;100456.34;2093626;28;45642;-59
2022/06/25 03:57:25;;;;;;;;;0.00;0.00;;;;;23.18;50.55;100458.19;2083921;28;47414;-58
2022/06/25 03:58:25;;;;;;;;;0.00;0.00;;;;;23.18;50.10;100460.91;2087437;28;47396;-56
2022/06/25 03:59:26;;;;;;;;;0.00;0.00;;;;;23.18;50.04;100458.19;2089334;28;47360;-59
2022/06/25 04:00:26;;;;;;;;;0.00;0.00;;;;;23.17;50.19;100453.75;2087621;28;48011;-58
2022/06/25 04:01:27;;;;;;;;;0.00;0.00;;;;;23.17;50.04;100456.47;2088683;28;47521;-61
2022/06/25 04:02:28;;;;;;;;;0.00;0.00;;;;;23.16;50.32;100458.31;2093733;28;47198;-60
2022/06/25 04:03:28;;;;;;;;;0.00;0.00;;;;;23.15;50.45;100456.59;2089986;28;47180;-60
2022/06/25 04:04:29;;;;;;;;;0.00;0.00;;;;;23.15;50.27;100461.16;2095965;28;47463;-59
2022/06/25 04:05:30;;;;;;;;;0.00;0.00;;;;;23.14;50.42;100454.88;2093590;28;47443;-60
2022/06/25 04:06:31;;;;;;;;;0.00;0.00;;;;;23.15;50.50;100463.84;2087814;28;47653;-58
2022/06/25 04:07:31;;;;;;;;;0.00;0.00;;;;;23.14;50.47;100463.00;2080476;28;47948;-60
2022/06/25 04:08:32;;;;;;;;;0.00;0.00;;;;;23.14;50.27;100462.13;2087153;28;47795;-59
2022/06/25 04:09:32;;;;;;;;;0.00;0.00;;;;;23.13;50.61;100469.38;2089004;28;48358;-59
2022/06/25 04:10:33;;;;;;;;;0.00;0.00;;;;;23.14;50.60;100468.41;2095618;28;47260;-58
2022/06/25 04:11:34;;;;;;;;;0.00;0.00;;;;;23.14;50.63;100463.00;2087750;28;47685;-58
2022/06/25 04:12:34;;;;;;;;;0.25;0.00;;;;;23.14;50.68;100460.28;2094420;28;47872;-59
2022/06/25 04:13:35;;;;;;;;;0.00;0.00;;;;;23.14;50.57;100462.13;2091095;28;47838;-58
2022/06/25 04:14:35;;;;;;;;;0.00;0.00;;;;;23.14;50.73;100462.13;2088615;28;47577;-58
2022/06/25 04:15:36;;;;;;;;;0.00;0.00;;;;;23.13;50.42;100463.97;2087610;28;46855;-62
2022/06/25 04:16:37;;;;;;;;;0.25;0.25;;;;;23.12;50.64;100462.25;2070966;28;47648;-60
2022/06/25 04:17:37;;;;;;;;;0.00;0.00;;;;;23.13;50.71;100469.38;2089261;28;47679;-59
2022/06/25 04:18:38;;;;;;;;;0.00;0.00;;;;;23.13;50.85;100468.53;2089551;28;47342;-60
2022/06/25 04:19:42;;;;;;;;;0.00;0.00;;;;;23.13;50.94;100466.69;2094373;28;48044;-60
2022/06/25 04:20:42;;;;;;;;;0.75;0.75;;;;;23.13;51.13;100466.69;2097142;28;47597;-59
2022/06/25 04:21:47;;;;;;;;;0.00;0.00;;;;;23.14;50.61;100479.22;2088429;28;47883;-58
2022/06/25 04:22:47;;;;;;;;;0.00;0.00;;;;;23.14;50.79;100478.38;2086938;28;48055;-59
2022/06/25 04:23:48;;;;;;;;;0.00;0.00;;;;;23.15;50.84;100474.69;2087860;28;47721;-60
2022/06/25 04:24:48;;;;;;;;;0.00;0.00;;;;;23.14;50.93;100471.13;2085675;28;47680;-60
2022/06/25 04:25:49;;;;;;;;;0.00;0.00;;;;;23.16;50.85;100465.56;2092778;28;47571;-57
2022/06/25 04:26:49;;;;;;;;;0.33;0.33;;;;;23.15;51.10;100471.97;2091140;28;47328;-59
2022/06/25 04:29:09;;;;;;;;;0.50;0.00;;;;;23.17;50.84;100470.88;2081020;28;47692;-59
2022/06/25 04:30:09;;;;;;;;;0.00;0.00;;;;;23.17;50.91;100481.69;2080256;28;47985;-58
2022/06/25 04:31:10;;;;;;;;;0.00;0.00;;;;;23.18;50.97;100480.72;2086037;28;47718;-59
2022/06/25 04:32:10;;;;;;;;;0.00;0.00;;;;;23.18;50.96;100485.25;2097373;28;47887;-59
2022/06/25 04:33:11;;;;;;;;;0.00;0.00;;;;;23.17;50.90;100470.00;2096504;28;47422;-58
2022/06/25 04:34:11;;;;;;;;;0.00;0.00;;;;;23.17;50.95;100480.84;2087096;28;47490;-59
2022/06/25 04:35:12;;;;;;;;;1.00;0.00;;;;;23.16;51.08;100476.41;2080473;28;47386;-60
2022/06/25 04:36:12;;;;;;;;;0.00;0.00;;;;;23.17;51.10;100483.53;2093186;28;47390;-58
2022/06/25 04:37:12;;;;;;;;;0.67;0.67;;;;;23.16;51.28;100476.41;2088530;28;47695;-57
2022/06/25 04:38:13;;;;;;;;;0.00;0.00;;;;;23.16;51.31;100479.97;2086149;28;46502;-59
2022/06/25 04:39:14;;;;;;;;;0.00;0.00;;;;;23.16;51.58;100488.09;2079102;28;47340;-60
2022/06/25 04:40:15;;;;;;;;;0.00;0.00;;;;;23.16;51.10;100488.09;2079128;28;47459;-60
2022/06/25 04:41:15;;;;;;;;;0.00;0.00;;;;;23.16;51.33;100485.38;2087096;28;47552;-60
2022/06/25 04:42:15;;;;;;;;;0.00;0.00;;;;;23.15;51.41;100480.97;2082120;28;47778;-60
2022/06/25 04:43:16;;;;;;;;;0.00;0.00;;;;;23.14;51.30;100486.50;2083107;28;47495;-60
2022/06/25 04:44:16;;;;;;;;;0.00;0.00;;;;;23.15;51.28;100482.81;2088645;28;47562;-59
2022/06/25 04:45:17;;;;;;;;;0.00;0.00;;;;;23.14;51.35;100481.94;2088162;28;47739;-60
2022/06/25 04:46:17;;;;;;;;;0.33;0.00;;;;;23.14;51.38;100481.94;2086406;28;47590;-60
2022/06/25 04:47:17;;;;;;;;;0.00;0.00;;;;;23.14;51.45;100483.78;2092649;28;47822;-59
2022/06/25 04:48:18;;;;;;;;;0.00;0.00;;;;;23.14;51.45;100492.78;2097072;28;47675;-60
2022/06/25 04:49:18;;;;;;;;;0.00;0.00;;;;;23.14;51.14;100486.50;2088938;28;47662;-59
2022/06/25 04:50:18;;;;;;;;;0.00;0.00;;;;;23.13;51.51;100490.19;2086144;28;47690;-60
2022/06/25 04:51:19;;;;;;;;;0.00;0.00;;;;;23.12;51.52;100485.72;2081423;28;47581;-59
2022/06/25 04:52:19;;;;;;;;;0.67;0.67;;;;;23.11;51.78;100478.59;2088591;28;47517;-59